sensor_id;sensor_type;location;lat;lon;timestamp;temperature;humidity
39067;DHT22;24821;51.988;6.020;2023-03-23T00:00:07;12.30;99.90
39067;DHT22;24821;51.988;6.020;2023-03-23T00:02:36;12.30;99.90
39067;DHT22;24821;51.988;6.020;2023-03-23T00:05:04;12.30;99.90
39067;DHT22;24821;51.988;6.020;2023-03-23T00:07:30;12.40;99.90
39067;DHT22;24821;51.988;6.020;2023-03-23T00:09:56;12.40;99.90
39067;DHT22;24821;51.988;6.020;2023-03-23T00:12:26;12.40;99.90
39067;DHT22;24821;51.988;6.020;2023-03-23T00:15:05;12.40;99.90
39067;DHT22;24821;51.988;6.020;2023-03-23T00:17:32;12.40;99.90
39067;DHT22;24821;51.988;6.020;2023-03-23T00:20:01;12.40;99.90
39067;DHT22;24821;51.988;6.020;2023-03-23T00:22:30;12.40;99.90
39067;DHT22;24821;51.988;6.020;2023-03-23T00:24:55;12.40;99.90
39067;DHT22;24821;51.988;6.020;2023-03-23T00:27:22;12.40;99.90
39067;DHT22;24821;51.988;6.020;2023-03-23T00:29:50;12.40;99.90
39067;DHT22;24821;51.988;6.020;2023-03-23T00:32:19;12.40;99.90
39067;DHT22;24821;51.988;6.020;2023-03-23T00:34:46;12.40;99.90
39067;DHT22;24821;51.988;6.020;2023-03-23T00:37:14;12.40;99.90
39067;DHT22;24821;51.988;6.020;2023-03-23T00:39:42;12.50;99.90
39067;DHT22;24821;51.988;6.020;2023-03-23T00:42:10;12.50;99.90
39067;DHT22;24821;51.988;6.020;2023-03-23T00:44:37;12.50;99.90
39067;DHT22;24821;51.988;6.020;2023-03-23T00:47:05;12.50;99.90
39067;DHT22;24821;51.988;6.020;2023-03-23T00:49:33;12.50;99.90
39067;DHT22;24821;51.988;6.020;2023-03-23T00:52:00;12.50;99.90
39067;DHT22;24821;51.988;6.020;2023-03-23T00:54:27;12.60;99.90
39067;DHT22;24821;51.988;6.020;2023-03-23T00:56:53;12.50;99.90
39067;DHT22;24821;51.988;6.020;2023-03-23T00:59:20;12.50;99.90
39067;DHT22;24821;51.988;6.020;2023-03-23T01:01:46;12.50;99.90
39067;DHT22;24821;51.988;6.020;2023-03-23T01:04:12;12.50;99.90
39067;DHT22;24821;51.988;6.020;2023-03-23T01:06:41;12.50;99.90
39067;DHT22;24821;51.988;6.020;2023-03-23T01:09:13;12.60;99.90
39067;DHT22;24821;51.988;6.020;2023-03-23T01:11:43;12.50;99.90
39067;DHT22;24821;51.988;6.020;2023-03-23T01:14:10;12.50;99.90
39067;DHT22;24821;51.988;6.020;2023-03-23T01:16:35;12.50;99.90
39067;DHT22;24821;51.988;6.020;2023-03-23T01:19:01;12.50;99.90
39067;DHT22;24821;51.988;6.020;2023-03-23T01:21:27;12.50;99.90
39067;DHT22;24821;51.988;6.020;2023-03-23T01:23:53;12.50;99.90
39067;DHT22;24821;51.988;6.020;2023-03-23T01:26:24;12.40;99.90
39067;DHT22;24821;51.988;6.020;2023-03-23T01:28:50;12.50;99.90
39067;DHT22;24821;51.988;6.020;2023-03-23T01:31:18;12.50;99.90
39067;DHT22;24821;51.988;6.020;2023-03-23T01:33:45;12.40;99.90
39067;DHT22;24821;51.988;6.020;2023-03-23T01:36:16;12.40;99.90
39067;DHT22;24821;51.988;6.020;2023-03-23T01:38:44;12.50;99.90
39067;DHT22;24821;51.988;6.020;2023-03-23T01:41:10;12.50;99.90
39067;DHT22;24821;51.988;6.020;2023-03-23T01:43:36;12.50;99.90
39067;DHT22;24821;51.988;6.020;2023-03-23T01:46:02;12.50;99.90
39067;DHT22;24821;51.988;6.020;2023-03-23T01:48:36;12.50;99.90
39067;DHT22;24821;51.988;6.020;2023-03-23T01:51:06;12.50;99.90
39067;DHT22;24821;51.988;6.020;2023-03-23T01:53:37;12.50;99.90
39067;DHT22;24821;51.988;6.020;2023-03-23T01:56:04;12.50;99.90
39067;DHT22;24821;51.988;6.020;2023-03-23T01:58:33;12.40;99.90
39067;DHT22;24821;51.988;6.020;2023-03-23T02:01:03;12.50;99.90
39067;DHT22;24821;51.988;6.020;2023-03-23T02:03:31;12.50;99.90
39067;DHT22;24821;51.988;6.020;2023-03-23T02:05:58;12.50;99.90
39067;DHT22;24821;51.988;6.020;2023-03-23T02:08:24;12.50;99.90
39067;DHT22;24821;51.988;6.020;2023-03-23T02:10:52;12.50;99.90
39067;DHT22;24821;51.988;6.020;2023-03-23T02:13:18;12.50;99.90
39067;DHT22;24821;51.988;6.020;2023-03-23T02:15:54;12.50;99.90
39067;DHT22;24821;51.988;6.020;2023-03-23T02:18:40;12.50;99.90
39067;DHT22;24821;51.988;6.020;2023-03-23T02:21:28;12.50;99.90
39067;DHT22;24821;51.988;6.020;2023-03-23T02:24:47;12.50;99.90
39067;DHT22;24821;51.988;6.020;2023-03-23T02:27:14;12.50;99.90
39067;DHT22;24821;51.988;6.020;2023-03-23T02:35:29;12.50;99.90
39067;DHT22;24821;51.988;6.020;2023-03-23T02:38:00;12.60;99.90
39067;DHT22;24821;51.988;6.020;2023-03-23T02:40:32;12.50;99.90
39067;DHT22;24821;51.988;6.020;2023-03-23T02:42:59;12.50;99.90
39067;DHT22;24821;51.988;6.020;2023-03-23T02:45:27;12.60;99.90
39067;DHT22;24821;51.988;6.020;2023-03-23T02:47:55;12.60;99.90
39067;DHT22;24821;51.988;6.020;2023-03-23T02:50:24;12.70;99.90
39067;DHT22;24821;51.988;6.020;2023-03-23T02:52:52;12.70;99.90
39067;DHT22;24821;51.988;6.020;2023-03-23T02:55:21;12.70;99.90
39067;DHT22;24821;51.988;6.020;2023-03-23T02:57:50;12.70;99.90
39067;DHT22;24821;51.988;6.020;2023-03-23T03:00:17;12.70;99.90
39067;DHT22;24821;51.988;6.020;2023-03-23T03:02:52;12.70;99.90
39067;DHT22;24821;51.988;6.020;2023-03-23T03:05:53;12.80;99.90
39067;DHT22;24821;51.988;6.020;2023-03-23T03:08:30;12.80;99.90
39067;DHT22;24821;51.988;6.020;2023-03-23T03:11:07;12.70;99.90
39067;DHT22;24821;51.988;6.020;2023-03-23T03:16:38;12.70;99.90
39067;DHT22;24821;51.988;6.020;2023-03-23T03:19:17;12.80;99.90
39067;DHT22;24821;51.988;6.020;2023-03-23T03:21:46;12.80;99.90
39067;DHT22;24821;51.988;6.020;2023-03-23T03:24:16;12.80;99.90
39067;DHT22;24821;51.988;6.020;2023-03-23T03:26:45;12.80;99.90
39067;DHT22;24821;51.988;6.020;2023-03-23T03:29:14;12.80;99.90
39067;DHT22;24821;51.988;6.020;2023-03-23T03:31:43;12.80;99.90
39067;DHT22;24821;51.988;6.020;2023-03-23T03:34:14;12.80;99.90
39067;DHT22;24821;51.988;6.020;2023-03-23T03:36:46;12.90;99.90
39067;DHT22;24821;51.988;6.020;2023-03-23T03:39:13;12.90;99.90
39067;DHT22;24821;51.988;6.020;2023-03-23T03:41:41;12.90;99.90
39067;DHT22;24821;51.988;6.020;2023-03-23T03:44:07;12.90;99.90
39067;DHT22;24821;51.988;6.020;2023-03-23T03:46:34;12.90;99.90
39067;DHT22;24821;51.988;6.020;2023-03-23T03:49:02;12.90;99.90
39067;DHT22;24821;51.988;6.020;2023-03-23T03:51:29;13.00;99.90
39067;DHT22;24821;51.988;6.020;2023-03-23T03:53:55;13.00;99.90
39067;DHT22;24821;51.988;6.020;2023-03-23T03:56:22;12.90;99.90
39067;DHT22;24821;51.988;6.020;2023-03-23T03:58:49;13.00;99.90
39067;DHT22;24821;51.988;6.020;2023-03-23T04:01:15;13.00;99.90
39067;DHT22;24821;51.988;6.020;2023-03-23T04:03:42;13.00;99.90
39067;DHT22;24821;51.988;6.020;2023-03-23T04:06:09;12.90;99.90
39067;DHT22;24821;51.988;6.020;2023-03-23T04:08:36;13.00;99.90
39067;DHT22;24821;51.988;6.020;2023-03-23T04:11:03;13.00;99.90
39067;DHT22;24821;51.988;6.020;2023-03-23T04:13:30;13.00;99.90
39067;DHT22;24821;51.988;6.020;2023-03-23T04:15:55;13.00;99.90
39067;DHT22;24821;51.988;6.020;2023-03-23T04:18:21;13.00;99.90
39067;DHT22;24821;51.988;6.020;2023-03-23T04:20:49;13.00;99.90
39067;DHT22;24821;51.988;6.020;2023-03-23T04:23:19;13.10;99.90
39067;DHT22;24821;51.988;6.020;2023-03-23T04:25:49;13.10;99.90
39067;DHT22;24821;51.988;6.020;2023-03-23T04:28:16;13.10;99.90
39067;DHT22;24821;51.988;6.020;2023-03-23T04:30:44;13.10;99.90
39067;DHT22;24821;51.988;6.020;2023-03-23T04:33:11;13.10;99.90
39067;DHT22;24821;51.988;6.020;2023-03-23T04:35:41;13.10;99.90
39067;DHT22;24821;51.988;6.020;2023-03-23T04:38:08;13.10;99.90
39067;DHT22;24821;51.988;6.020;2023-03-23T04:40:38;13.20;99.90
39067;DHT22;24821;51.988;6.020;2023-03-23T04:43:05;13.10;99.90
39067;DHT22;24821;51.988;6.020;2023-03-23T04:45:32;13.10;99.90
39067;DHT22;24821;51.988;6.020;2023-03-23T04:47:58;13.10;99.90
39067;DHT22;24821;51.988;6.020;2023-03-23T04:50:34;13.10;99.90
39067;DHT22;24821;51.988;6.020;2023-03-23T04:53:02;13.10;99.90
39067;DHT22;24821;51.988;6.020;2023-03-23T04:55:33;13.10;99.90
39067;DHT22;24821;51.988;6.020;2023-03-23T04:58:05;13.10;99.90
39067;DHT22;24821;51.988;6.020;2023-03-23T05:00:32;13.10;99.90
39067;DHT22;24821;51.988;6.020;2023-03-23T05:02:57;13.10;99.90
39067;DHT22;24821;51.988;6.020;2023-03-23T05:05:24;13.10;99.90
39067;DHT22;24821;51.988;6.020;2023-03-23T05:07:50;13.10;99.90
39067;DHT22;24821;51.988;6.020;2023-03-23T05:10:17;13.10;99.90
39067;DHT22;24821;51.988;6.020;2023-03-23T05:12:43;13.20;99.90
39067;DHT22;24821;51.988;6.020;2023-03-23T05:15:10;13.20;99.90
39067;DHT22;24821;51.988;6.020;2023-03-23T05:17:36;13.20;99.90
39067;DHT22;24821;51.988;6.020;2023-03-23T05:20:03;13.20;99.90
39067;DHT22;24821;51.988;6.020;2023-03-23T05:22:36;13.20;99.90
39067;DHT22;24821;51.988;6.020;2023-03-23T05:25:03;13.10;99.90
39067;DHT22;24821;51.988;6.020;2023-03-23T05:27:29;13.10;99.90
39067;DHT22;24821;51.988;6.020;2023-03-23T05:29:59;13.10;99.90
39067;DHT22;24821;51.988;6.020;2023-03-23T05:32:26;13.20;99.90
39067;DHT22;24821;51.988;6.020;2023-03-23T05:34:55;13.10;99.90
39067;DHT22;24821;51.988;6.020;2023-03-23T05:37:22;13.10;99.90
39067;DHT22;24821;51.988;6.020;2023-03-23T05:39:47;13.10;99.90
39067;DHT22;24821;51.988;6.020;2023-03-23T05:42:13;13.20;99.90
39067;DHT22;24821;51.988;6.020;2023-03-23T05:44:39;13.10;99.90
39067;DHT22;24821;51.988;6.020;2023-03-23T05:47:04;13.20;99.90
39067;DHT22;24821;51.988;6.020;2023-03-23T05:49:30;13.10;99.90
39067;DHT22;24821;51.988;6.020;2023-03-23T05:51:56;13.20;99.90
39067;DHT22;24821;51.988;6.020;2023-03-23T05:54:21;13.20;99.90
39067;DHT22;24821;51.988;6.020;2023-03-23T05:56:47;13.20;99.90
39067;DHT22;24821;51.988;6.020;2023-03-23T05:59:14;13.20;99.90
39067;DHT22;24821;51.988;6.020;2023-03-23T06:01:39;13.20;99.90
39067;DHT22;24821;51.988;6.020;2023-03-23T06:04:05;13.20;99.90
39067;DHT22;24821;51.988;6.020;2023-03-23T06:06:31;13.20;99.90
39067;DHT22;24821;51.988;6.020;2023-03-23T06:08:58;13.30;99.90
39067;DHT22;24821;51.988;6.020;2023-03-23T06:11:24;13.30;99.90
39067;DHT22;24821;51.988;6.020;2023-03-23T06:13:51;13.30;99.90
39067;DHT22;24821;51.988;6.020;2023-03-23T06:16:17;13.30;99.90
39067;DHT22;24821;51.988;6.020;2023-03-23T06:18:44;13.30;99.90
39067;DHT22;24821;51.988;6.020;2023-03-23T06:21:11;13.30;99.90
39067;DHT22;24821;51.988;6.020;2023-03-23T06:23:37;13.30;99.90
39067;DHT22;24821;51.988;6.020;2023-03-23T06:26:06;13.30;99.90
39067;DHT22;24821;51.988;6.020;2023-03-23T06:28:32;13.30;99.90
39067;DHT22;24821;51.988;6.020;2023-03-23T06:31:03;13.30;99.90
39067;DHT22;24821;51.988;6.020;2023-03-23T06:33:32;13.40;99.90
39067;DHT22;24821;51.988;6.020;2023-03-23T06:35:59;13.40;99.90
39067;DHT22;24821;51.988;6.020;2023-03-23T06:38:25;13.50;99.90
39067;DHT22;24821;51.988;6.020;2023-03-23T06:40:52;13.50;99.90
39067;DHT22;24821;51.988;6.020;2023-03-23T06:43:18;13.50;99.90
39067;DHT22;24821;51.988;6.020;2023-03-23T06:45:44;13.50;99.90
39067;DHT22;24821;51.988;6.020;2023-03-23T06:48:10;13.50;99.90
39067;DHT22;24821;51.988;6.020;2023-03-23T06:50:35;13.50;99.90
39067;DHT22;24821;51.988;6.020;2023-03-23T06:53:01;13.40;99.90
39067;DHT22;24821;51.988;6.020;2023-03-23T06:55:26;13.50;99.90
39067;DHT22;24821;51.988;6.020;2023-03-23T06:57:52;13.50;99.90
39067;DHT22;24821;51.988;6.020;2023-03-23T07:00:18;13.50;99.90
39067;DHT22;24821;51.988;6.020;2023-03-23T07:02:43;13.40;99.90
39067;DHT22;24821;51.988;6.020;2023-03-23T07:05:11;13.40;99.90
39067;DHT22;24821;51.988;6.020;2023-03-23T07:07:37;13.40;99.90
39067;DHT22;24821;51.988;6.020;2023-03-23T07:10:04;13.50;99.90
39067;DHT22;24821;51.988;6.020;2023-03-23T07:12:31;13.40;99.90
39067;DHT22;24821;51.988;6.020;2023-03-23T07:14:58;13.40;99.90
39067;DHT22;24821;51.988;6.020;2023-03-23T07:17:24;13.40;99.90
39067;DHT22;24821;51.988;6.020;2023-03-23T07:19:49;13.40;99.90
39067;DHT22;24821;51.988;6.020;2023-03-23T07:22:16;13.40;99.90
39067;DHT22;24821;51.988;6.020;2023-03-23T07:24:41;13.40;99.90
39067;DHT22;24821;51.988;6.020;2023-03-23T07:27:08;13.40;99.90
39067;DHT22;24821;51.988;6.020;2023-03-23T07:29:34;13.40;99.90
39067;DHT22;24821;51.988;6.020;2023-03-23T07:32:01;13.50;99.90
39067;DHT22;24821;51.988;6.020;2023-03-23T07:34:27;13.40;99.90
39067;DHT22;24821;51.988;6.020;2023-03-23T07:36:53;13.50;99.90
39067;DHT22;24821;51.988;6.020;2023-03-23T07:39:19;13.50;99.90
39067;DHT22;24821;51.988;6.020;2023-03-23T07:41:45;13.50;99.90
39067;DHT22;24821;51.988;6.020;2023-03-23T07:44:10;13.50;99.90
39067;DHT22;24821;51.988;6.020;2023-03-23T07:46:36;13.60;99.90
39067;DHT22;24821;51.988;6.020;2023-03-23T07:49:02;13.50;99.90
39067;DHT22;24821;51.988;6.020;2023-03-23T07:51:31;13.50;99.90
39067;DHT22;24821;51.988;6.020;2023-03-23T07:53:56;13.40;99.90
39067;DHT22;24821;51.988;6.020;2023-03-23T07:56:22;13.40;99.90
39067;DHT22;24821;51.988;6.020;2023-03-23T07:58:48;13.40;99.90
39067;DHT22;24821;51.988;6.020;2023-03-23T08:01:14;13.40;99.90
39067;DHT22;24821;51.988;6.020;2023-03-23T08:03:41;13.30;99.90
39067;DHT22;24821;51.988;6.020;2023-03-23T08:06:07;13.30;99.90
39067;DHT22;24821;51.988;6.020;2023-03-23T08:08:33;13.20;99.90
39067;DHT22;24821;51.988;6.020;2023-03-23T08:11:01;13.10;99.90
39067;DHT22;24821;51.988;6.020;2023-03-23T08:13:26;13.00;99.90
39067;DHT22;24821;51.988;6.020;2023-03-23T08:15:52;13.00;99.90
39067;DHT22;24821;51.988;6.020;2023-03-23T08:18:18;12.90;99.90
39067;DHT22;24821;51.988;6.020;2023-03-23T08:20:44;12.90;99.90
39067;DHT22;24821;51.988;6.020;2023-03-23T08:23:14;12.80;99.90
39067;DHT22;24821;51.988;6.020;2023-03-23T08:25:41;12.80;99.90
39067;DHT22;24821;51.988;6.020;2023-03-23T08:28:08;12.90;99.90
39067;DHT22;24821;51.988;6.020;2023-03-23T08:30:34;12.90;99.90
39067;DHT22;24821;51.988;6.020;2023-03-23T08:33:01;12.90;99.90
39067;DHT22;24821;51.988;6.020;2023-03-23T08:35:27;13.00;99.90
39067;DHT22;24821;51.988;6.020;2023-03-23T08:37:53;13.10;99.90
39067;DHT22;24821;51.988;6.020;2023-03-23T08:40:21;13.10;99.90
39067;DHT22;24821;51.988;6.020;2023-03-23T08:42:48;13.10;99.90
39067;DHT22;24821;51.988;6.020;2023-03-23T08:45:17;13.10;99.90
39067;DHT22;24821;51.988;6.020;2023-03-23T08:47:44;13.20;99.90
39067;DHT22;24821;51.988;6.020;2023-03-23T08:50:13;13.20;99.90
39067;DHT22;24821;51.988;6.020;2023-03-23T08:52:39;13.30;99.90
39067;DHT22;24821;51.988;6.020;2023-03-23T08:55:05;13.40;99.90
39067;DHT22;24821;51.988;6.020;2023-03-23T08:57:34;13.40;99.90
39067;DHT22;24821;51.988;6.020;2023-03-23T09:00:02;13.40;99.90
39067;DHT22;24821;51.988;6.020;2023-03-23T09:02:39;13.50;99.90
39067;DHT22;24821;51.988;6.020;2023-03-23T09:05:05;13.50;99.90
39067;DHT22;24821;51.988;6.020;2023-03-23T09:07:32;13.50;99.90
39067;DHT22;24821;51.988;6.020;2023-03-23T09:09:57;13.50;99.90
39067;DHT22;24821;51.988;6.020;2023-03-23T09:12:23;13.40;99.90
39067;DHT22;24821;51.988;6.020;2023-03-23T09:14:49;13.50;99.90
39067;DHT22;24821;51.988;6.020;2023-03-23T09:17:14;13.50;99.90
39067;DHT22;24821;51.988;6.020;2023-03-23T09:19:40;13.50;99.90
39067;DHT22;24821;51.988;6.020;2023-03-23T09:22:07;13.50;99.90
39067;DHT22;24821;51.988;6.020;2023-03-23T09:24:33;13.60;99.90
39067;DHT22;24821;51.988;6.020;2023-03-23T09:26:58;13.50;99.90
39067;DHT22;24821;51.988;6.020;2023-03-23T09:29:25;13.60;99.90
39067;DHT22;24821;51.988;6.020;2023-03-23T09:31:53;13.70;99.90
39067;DHT22;24821;51.988;6.020;2023-03-23T09:34:19;13.70;99.90
39067;DHT22;24821;51.988;6.020;2023-03-23T09:36:45;13.70;99.90
39067;DHT22;24821;51.988;6.020;2023-03-23T09:39:11;13.70;99.90
39067;DHT22;24821;51.988;6.020;2023-03-23T09:42:02;13.80;99.90
39067;DHT22;24821;51.988;6.020;2023-03-23T09:50:18;13.70;99.90
39067;DHT22;24821;51.988;6.020;2023-03-23T09:53:05;13.70;99.90
39067;DHT22;24821;51.988;6.020;2023-03-23T09:55:34;13.90;99.90
39067;DHT22;24821;51.988;6.020;2023-03-23T09:58:43;14.10;99.90
39067;DHT22;24821;51.988;6.020;2023-03-23T10:01:11;14.30;99.90
39067;DHT22;24821;51.988;6.020;2023-03-23T10:03:39;14.40;99.90
39067;DHT22;24821;51.988;6.020;2023-03-23T10:06:13;14.50;99.90
39067;DHT22;24821;51.988;6.020;2023-03-23T10:08:51;14.50;99.90
39067;DHT22;24821;51.988;6.020;2023-03-23T10:11:40;14.60;99.90
39067;DHT22;24821;51.988;6.020;2023-03-23T10:14:27;14.80;99.90
39067;DHT22;24821;51.988;6.020;2023-03-23T10:19:33;14.90;99.90
39067;DHT22;24821;51.988;6.020;2023-03-23T10:22:11;14.80;99.90
39067;DHT22;24821;51.988;6.020;2023-03-23T10:25:36;14.90;99.90
39067;DHT22;24821;51.988;6.020;2023-03-23T10:30:22;15.10;99.90
39067;DHT22;24821;51.988;6.020;2023-03-23T10:33:03;15.10;99.90
39067;DHT22;24821;51.988;6.020;2023-03-23T10:35:37;15.10;99.90
39067;DHT22;24821;51.988;6.020;2023-03-23T10:38:09;15.20;99.90
39067;DHT22;24821;51.988;6.020;2023-03-23T10:40:56;15.30;99.90
39067;DHT22;24821;51.988;6.020;2023-03-23T10:43:24;15.40;99.90
39067;DHT22;24821;51.988;6.020;2023-03-23T10:46:00;15.40;99.90
39067;DHT22;24821;51.988;6.020;2023-03-23T10:48:33;15.40;99.90
39067;DHT22;24821;51.988;6.020;2023-03-23T10:51:04;15.30;99.90
39067;DHT22;24821;51.988;6.020;2023-03-23T10:53:35;15.30;99.90
39067;DHT22;24821;51.988;6.020;2023-03-23T10:56:05;15.40;99.90
39067;DHT22;24821;51.988;6.020;2023-03-23T10:58:35;15.40;99.90
39067;DHT22;24821;51.988;6.020;2023-03-23T11:01:03;15.40;99.90
39067;DHT22;24821;51.988;6.020;2023-03-23T11:03:42;15.40;99.90
39067;DHT22;24821;51.988;6.020;2023-03-23T11:06:18;15.40;99.90
39067;DHT22;24821;51.988;6.020;2023-03-23T11:08:58;15.40;99.90
39067;DHT22;24821;51.988;6.020;2023-03-23T11:11:28;15.40;99.90
39067;DHT22;24821;51.988;6.020;2023-03-23T11:16:44;15.30;99.90
39067;DHT22;24821;51.988;6.020;2023-03-23T11:19:21;15.30;99.90
39067;DHT22;24821;51.988;6.020;2023-03-23T11:22:07;15.40;99.90
39067;DHT22;24821;51.988;6.020;2023-03-23T11:24:42;15.40;99.90
39067;DHT22;24821;51.988;6.020;2023-03-23T11:27:09;15.30;99.90
39067;DHT22;24821;51.988;6.020;2023-03-23T11:29:37;15.40;99.90
39067;DHT22;24821;51.988;6.020;2023-03-23T11:32:11;15.60;99.90
39067;DHT22;24821;51.988;6.020;2023-03-23T11:34:45;15.80;99.90
39067;DHT22;24821;51.988;6.020;2023-03-23T11:38:11;16.00;99.90
39067;DHT22;24821;51.988;6.020;2023-03-23T11:40:47;16.10;99.90
39067;DHT22;24821;51.988;6.020;2023-03-23T11:43:17;16.00;99.90
39067;DHT22;24821;51.988;6.020;2023-03-23T11:48:40;15.80;99.90
39067;DHT22;24821;51.988;6.020;2023-03-23T11:51:29;15.90;99.90
39067;DHT22;24821;51.988;6.020;2023-03-23T11:56:36;16.10;99.90
39067;DHT22;24821;51.988;6.020;2023-03-23T11:59:05;16.10;99.90
39067;DHT22;24821;51.988;6.020;2023-03-23T12:04:44;16.00;99.90
39067;DHT22;24821;51.988;6.020;2023-03-23T12:10:23;15.60;99.90
39067;DHT22;24821;51.988;6.020;2023-03-23T12:16:11;15.30;99.90
39067;DHT22;24821;51.988;6.020;2023-03-23T12:30:02;14.60;99.90
39067;DHT22;24821;51.988;6.020;2023-03-23T12:39:29;15.20;99.90
39067;DHT22;24821;51.988;6.020;2023-03-23T12:44:45;15.60;99.90
39067;DHT22;24821;51.988;6.020;2023-03-23T12:47:40;15.60;99.90
39067;DHT22;24821;51.988;6.020;2023-03-23T12:50:21;15.60;99.90
39067;DHT22;24821;51.988;6.020;2023-03-23T12:52:59;15.70;99.90
39067;DHT22;24821;51.988;6.020;2023-03-23T13:00:33;15.70;99.90
39067;DHT22;24821;51.988;6.020;2023-03-23T13:03:05;15.70;99.90
39067;DHT22;24821;51.988;6.020;2023-03-23T13:05:41;15.70;99.90
39067;DHT22;24821;51.988;6.020;2023-03-23T13:08:22;15.60;99.90
39067;DHT22;24821;51.988;6.020;2023-03-23T13:10:50;15.60;99.90
39067;DHT22;24821;51.988;6.020;2023-03-23T13:13:24;15.50;99.90
39067;DHT22;24821;51.988;6.020;2023-03-23T13:16:32;15.40;99.90
39067;DHT22;24821;51.988;6.020;2023-03-23T13:24:28;14.70;99.90
39067;DHT22;24821;51.988;6.020;2023-03-23T13:26:55;14.50;99.90
39067;DHT22;24821;51.988;6.020;2023-03-23T13:29:24;14.40;99.90
39067;DHT22;24821;51.988;6.020;2023-03-23T13:31:51;14.30;99.90
39067;DHT22;24821;51.988;6.020;2023-03-23T13:34:25;14.20;99.90
39067;DHT22;24821;51.988;6.020;2023-03-23T13:37:01;14.30;99.90
39067;DHT22;24821;51.988;6.020;2023-03-23T13:39:35;14.30;99.90
39067;DHT22;24821;51.988;6.020;2023-03-23T13:47:27;14.60;99.90
39067;DHT22;24821;51.988;6.020;2023-03-23T13:50:00;14.60;99.90
39067;DHT22;24821;51.988;6.020;2023-03-23T13:55:39;14.70;99.90
39067;DHT22;24821;51.988;6.020;2023-03-23T14:10:58;14.90;99.90
39067;DHT22;24821;51.988;6.020;2023-03-23T14:13:32;14.90;99.90
39067;DHT22;24821;51.988;6.020;2023-03-23T14:16:04;14.90;99.90
39067;DHT22;24821;51.988;6.020;2023-03-23T14:18:40;14.90;99.90
39067;DHT22;24821;51.988;6.020;2023-03-23T14:21:14;15.00;99.90
39067;DHT22;24821;51.988;6.020;2023-03-23T14:23:40;14.90;99.90
39067;DHT22;24821;51.988;6.020;2023-03-23T14:26:12;14.90;99.90
39067;DHT22;24821;51.988;6.020;2023-03-23T14:28:42;14.90;99.90
39067;DHT22;24821;51.988;6.020;2023-03-23T14:31:26;14.80;99.90
39067;DHT22;24821;51.988;6.020;2023-03-23T14:33:54;14.80;99.90
39067;DHT22;24821;51.988;6.020;2023-03-23T14:36:26;14.70;99.90
39067;DHT22;24821;51.988;6.020;2023-03-23T14:39:23;14.70;99.90
39067;DHT22;24821;51.988;6.020;2023-03-23T14:41:51;14.80;99.90
39067;DHT22;24821;51.988;6.020;2023-03-23T14:44:29;14.90;99.90
39067;DHT22;24821;51.988;6.020;2023-03-23T14:46:57;15.10;99.90
39067;DHT22;24821;51.988;6.020;2023-03-23T14:49:36;15.20;99.90
39067;DHT22;24821;51.988;6.020;2023-03-23T14:52:10;15.40;99.90
39067;DHT22;24821;51.988;6.020;2023-03-23T14:54:36;15.40;99.90
39067;DHT22;24821;51.988;6.020;2023-03-23T14:57:12;15.50;99.90
39067;DHT22;24821;51.988;6.020;2023-03-23T14:59:44;15.50;99.90
39067;DHT22;24821;51.988;6.020;2023-03-23T15:02:32;15.50;99.90
39067;DHT22;24821;51.988;6.020;2023-03-23T15:07:44;15.50;99.90
39067;DHT22;24821;51.988;6.020;2023-03-23T15:10:16;15.60;99.90
39067;DHT22;24821;51.988;6.020;2023-03-23T15:12:45;15.60;99.90
39067;DHT22;24821;51.988;6.020;2023-03-23T15:15:21;15.70;99.90
39067;DHT22;24821;51.988;6.020;2023-03-23T15:17:47;15.70;99.90
39067;DHT22;24821;51.988;6.020;2023-03-23T15:20:27;15.70;99.90
39067;DHT22;24821;51.988;6.020;2023-03-23T15:22:53;15.80;99.90
39067;DHT22;24821;51.988;6.020;2023-03-23T15:25:31;15.80;99.90
39067;DHT22;24821;51.988;6.020;2023-03-23T15:28:14;15.80;99.90
39067;DHT22;24821;51.988;6.020;2023-03-23T15:30:52;15.80;99.90
39067;DHT22;24821;51.988;6.020;2023-03-23T15:33:19;15.80;99.90
39067;DHT22;24821;51.988;6.020;2023-03-23T15:35:52;15.70;99.90
39067;DHT22;24821;51.988;6.020;2023-03-23T15:40:50;15.70;99.90
39067;DHT22;24821;51.988;6.020;2023-03-23T15:43:22;15.70;99.90
39067;DHT22;24821;51.988;6.020;2023-03-23T15:46:00;15.60;99.90
39067;DHT22;24821;51.988;6.020;2023-03-23T15:48:30;15.50;99.90
39067;DHT22;24821;51.988;6.020;2023-03-23T15:50:56;15.40;99.90
39067;DHT22;24821;51.988;6.020;2023-03-23T15:53:36;15.40;99.90
39067;DHT22;24821;51.988;6.020;2023-03-23T15:56:04;15.40;99.90
39067;DHT22;24821;51.988;6.020;2023-03-23T15:58:31;15.30;99.90
39067;DHT22;24821;51.988;6.020;2023-03-23T16:00:58;15.40;99.90
39067;DHT22;24821;51.988;6.020;2023-03-23T16:03:28;15.40;99.90
39067;DHT22;24821;51.988;6.020;2023-03-23T16:05:56;15.50;99.90
39067;DHT22;24821;51.988;6.020;2023-03-23T16:08:24;15.60;99.90
39067;DHT22;24821;51.988;6.020;2023-03-23T16:10:50;15.60;99.90
39067;DHT22;24821;51.988;6.020;2023-03-23T16:13:16;15.50;99.90
39067;DHT22;24821;51.988;6.020;2023-03-23T16:15:43;15.50;99.90
39067;DHT22;24821;51.988;6.020;2023-03-23T16:18:16;15.40;99.90
39067;DHT22;24821;51.988;6.020;2023-03-23T16:20:42;15.40;99.90
39067;DHT22;24821;51.988;6.020;2023-03-23T16:23:08;15.40;99.90
39067;DHT22;24821;51.988;6.020;2023-03-23T16:25:33;15.40;99.90
39067;DHT22;24821;51.988;6.020;2023-03-23T16:27:59;15.30;99.90
39067;DHT22;24821;51.988;6.020;2023-03-23T16:30:27;15.30;99.90
39067;DHT22;24821;51.988;6.020;2023-03-23T16:32:54;15.40;99.90
39067;DHT22;24821;51.988;6.020;2023-03-23T16:35:20;15.40;99.90
39067;DHT22;24821;51.988;6.020;2023-03-23T16:37:51;15.60;99.90
39067;DHT22;24821;51.988;6.020;2023-03-23T16:40:19;15.70;99.90
39067;DHT22;24821;51.988;6.020;2023-03-23T16:42:44;15.70;99.90
39067;DHT22;24821;51.988;6.020;2023-03-23T16:45:11;15.70;99.90
39067;DHT22;24821;51.988;6.020;2023-03-23T16:47:37;15.70;99.90
39067;DHT22;24821;51.988;6.020;2023-03-23T16:50:04;15.60;99.90
39067;DHT22;24821;51.988;6.020;2023-03-23T16:52:31;15.50;99.90
39067;DHT22;24821;51.988;6.020;2023-03-23T16:54:57;15.40;99.90
39067;DHT22;24821;51.988;6.020;2023-03-23T16:57:23;15.30;99.90
39067;DHT22;24821;51.988;6.020;2023-03-23T16:59:48;15.20;99.90
39067;DHT22;24821;51.988;6.020;2023-03-23T17:02:14;15.10;99.90
39067;DHT22;24821;51.988;6.020;2023-03-23T17:04:44;15.00;99.90
39067;DHT22;24821;51.988;6.020;2023-03-23T17:07:11;15.00;99.90
39067;DHT22;24821;51.988;6.020;2023-03-23T17:09:37;14.90;99.90
39067;DHT22;24821;51.988;6.020;2023-03-23T17:12:03;14.90;99.90
39067;DHT22;24821;51.988;6.020;2023-03-23T17:14:29;14.80;99.90
39067;DHT22;24821;51.988;6.020;2023-03-23T17:16:54;14.80;99.90
39067;DHT22;24821;51.988;6.020;2023-03-23T17:19:21;14.80;99.90
39067;DHT22;24821;51.988;6.020;2023-03-23T17:21:46;14.70;99.90